sensor_id;sensor_type;location;lat;lon;timestamp;P1;durP1;ratioP1;P2;durP2;ratioP2
71867;SDS011;59738;48.324;14.230;2022-08-19T00:00:40;7.10;;;2.30;;
71867;SDS011;59738;48.324;14.230;2022-08-19T00:03:08;4.82;;;2.60;;
71867;SDS011;59738;48.324;14.230;2022-08-19T00:05:37;7.18;;;2.38;;
71867;SDS011;59738;48.324;14.230;2022-08-19T00:08:06;4.93;;;2.70;;
71867;SDS011;59738;48.324;14.230;2022-08-19T00:10:33;3.45;;;2.20;;
71867;SDS011;59738;48.324;14.230;2022-08-19T00:13:01;8.23;;;2.43;;
71867;SDS011;59738;48.324;14.230;2022-08-19T00:15:29;6.97;;;2.40;;
71867;SDS011;59738;48.324;14.230;2022-08-19T00:17:57;6.60;;;3.08;;
71867;SDS011;59738;48.324;14.230;2022-08-19T00:20:25;8.00;;;2.88;;
71867;SDS011;59738;48.324;14.230;2022-08-19T00:22:54;4.45;;;2.72;;
71867;SDS011;59738;48.324;14.230;2022-08-19T00:25:22;5.27;;;2.97;;
71867;SDS011;59738;48.324;14.230;2022-08-19T00:27:50;9.35;;;2.85;;
71867;SDS011;59738;48.324;14.230;2022-08-19T00:30:17;8.68;;;2.83;;
71867;SDS011;59738;48.324;14.230;2022-08-19T00:32:45;8.18;;;2.80;;
71867;SDS011;59738;48.324;14.230;2022-08-19T00:35:13;6.25;;;2.72;;
71867;SDS011;59738;48.324;14.230;2022-08-19T00:37:41;6.43;;;3.27;;
71867;SDS011;59738;48.324;14.230;2022-08-19T00:40:11;7.28;;;3.42;;
71867;SDS011;59738;48.324;14.230;2022-08-19T00:42:39;9.20;;;4.43;;
71867;SDS011;59738;48.324;14.230;2022-08-19T00:45:09;8.85;;;3.88;;
71867;SDS011;59738;48.324;14.230;2022-08-19T00:47:39;9.25;;;3.78;;
71867;SDS011;59738;48.324;14.230;2022-08-19T00:50:07;8.57;;;4.00;;
71867;SDS011;59738;48.324;14.230;2022-08-19T00:52:37;8.50;;;4.25;;
71867;SDS011;59738;48.324;14.230;2022-08-19T00:55:14;8.38;;;3.60;;
71867;SDS011;59738;48.324;14.230;2022-08-19T00:57:46;9.40;;;4.30;;
71867;SDS011;59738;48.324;14.230;2022-08-19T01:00:20;6.20;;;3.50;;
71867;SDS011;59738;48.324;14.230;2022-08-19T01:02:49;11.23;;;4.70;;
71867;SDS011;59738;48.324;14.230;2022-08-19T01:05:19;9.88;;;4.53;;
71867;SDS011;59738;48.324;14.230;2022-08-19T01:07:49;9.82;;;4.72;;
71867;SDS011;59738;48.324;14.230;2022-08-19T01:10:20;8.13;;;4.53;;
71867;SDS011;59738;48.324;14.230;2022-08-19T01:12:50;10.68;;;5.43;;
71867;SDS011;59738;48.324;14.230;2022-08-19T01:15:19;13.87;;;5.20;;
71867;SDS011;59738;48.324;14.230;2022-08-19T01:17:51;13.00;;;5.80;;
71867;SDS011;59738;48.324;14.230;2022-08-19T01:20:20;11.90;;;5.80;;
71867;SDS011;59738;48.324;14.230;2022-08-19T01:22:52;12.02;;;6.85;;
71867;SDS011;59738;48.324;14.230;2022-08-19T01:25:21;14.95;;;5.97;;
71867;SDS011;59738;48.324;14.230;2022-08-19T01:27:52;12.20;;;7.00;;
71867;SDS011;59738;48.324;14.230;2022-08-19T01:30:22;15.32;;;7.40;;
71867;SDS011;59738;48.324;14.230;2022-08-19T01:32:51;17.80;;;8.85;;
71867;SDS011;59738;48.324;14.230;2022-08-19T01:35:20;21.70;;;7.90;;
71867;SDS011;59738;48.324;14.230;2022-08-19T01:37:51;15.85;;;8.93;;
71867;SDS011;59738;48.324;14.230;2022-08-19T01:40:22;16.67;;;8.77;;
71867;SDS011;59738;48.324;14.230;2022-08-19T01:42:52;17.67;;;8.65;;
71867;SDS011;59738;48.324;14.230;2022-08-19T01:45:21;15.20;;;8.98;;
71867;SDS011;59738;48.324;14.230;2022-08-19T01:47:50;17.20;;;8.73;;
71867;SDS011;59738;48.324;14.230;2022-08-19T01:50:18;13.55;;;8.82;;
71867;SDS011;59738;48.324;14.230;2022-08-19T01:52:47;16.57;;;8.90;;
71867;SDS011;59738;48.324;14.230;2022-08-19T01:55:17;12.35;;;7.97;;
71867;SDS011;59738;48.324;14.230;2022-08-19T01:57:47;15.38;;;8.88;;
71867;SDS011;59738;48.324;14.230;2022-08-19T02:00:22;13.70;;;8.35;;
71867;SDS011;59738;48.324;14.230;2022-08-19T02:02:51;12.45;;;8.05;;
71867;SDS011;59738;48.324;14.230;2022-08-19T02:05:19;16.33;;;7.83;;
71867;SDS011;59738;48.324;14.230;2022-08-19T02:07:48;12.48;;;8.68;;
71867;SDS011;59738;48.324;14.230;2022-08-19T02:10:18;13.85;;;8.95;;
71867;SDS011;59738;48.324;14.230;2022-08-19T02:12:48;13.15;;;8.60;;
71867;SDS011;59738;48.324;14.230;2022-08-19T02:15:16;14.85;;;9.10;;
71867;SDS011;59738;48.324;14.230;2022-08-19T02:17:44;14.30;;;9.20;;
71867;SDS011;59738;48.324;14.230;2022-08-19T02:20:13;16.70;;;9.90;;
71867;SDS011;59738;48.324;14.230;2022-08-19T02:22:41;15.18;;;10.13;;
71867;SDS011;59738;48.324;14.230;2022-08-19T02:25:09;18.05;;;10.85;;
71867;SDS011;59738;48.324;14.230;2022-08-19T02:27:41;16.75;;;10.77;;
71867;SDS011;59738;48.324;14.230;2022-08-19T02:30:11;18.03;;;11.13;;
71867;SDS011;59738;48.324;14.230;2022-08-19T02:32:41;18.83;;;11.50;;
71867;SDS011;59738;48.324;14.230;2022-08-19T02:35:09;18.17;;;13.23;;
71867;SDS011;59738;48.324;14.230;2022-08-19T02:37:38;19.70;;;12.40;;
71867;SDS011;59738;48.324;14.230;2022-08-19T02:40:23;16.33;;;10.38;;
71867;SDS011;59738;48.324;14.230;2022-08-19T02:42:52;15.87;;;9.70;;
71867;SDS011;59738;48.324;14.230;2022-08-19T02:45:20;13.52;;;9.50;;
71867;SDS011;59738;48.324;14.230;2022-08-19T02:47:48;16.90;;;10.55;;
71867;SDS011;59738;48.324;14.230;2022-08-19T02:50:16;15.60;;;9.60;;
71867;SDS011;59738;48.324;14.230;2022-08-19T02:52:45;17.02;;;10.30;;
71867;SDS011;59738;48.324;14.230;2022-08-19T02:55:13;16.27;;;10.27;;
71867;SDS011;59738;48.324;14.230;2022-08-19T02:57:40;16.73;;;10.50;;
71867;SDS011;59738;48.324;14.230;2022-08-19T03:00:13;18.52;;;11.63;;
71867;SDS011;59738;48.324;14.230;2022-08-19T03:02:42;19.70;;;10.43;;
71867;SDS011;59738;48.324;14.230;2022-08-19T03:05:12;10.77;;;6.22;;
71867;SDS011;59738;48.324;14.230;2022-08-19T03:07:40;13.07;;;6.87;;
71867;SDS011;59738;48.324;14.230;2022-08-19T03:10:08;13.05;;;7.18;;
71867;SDS011;59738;48.324;14.230;2022-08-19T03:12:38;18.52;;;9.15;;
71867;SDS011;59738;48.324;14.230;2022-08-19T03:15:07;12.32;;;8.35;;
71867;SDS011;59738;48.324;14.230;2022-08-19T03:17:37;15.07;;;9.43;;
71867;SDS011;59738;48.324;14.230;2022-08-19T03:20:09;14.40;;;9.00;;
71867;SDS011;59738;48.324;14.230;2022-08-19T03:22:40;13.85;;;8.70;;
71867;SDS011;59738;48.324;14.230;2022-08-19T03:25:08;15.07;;;9.05;;
71867;SDS011;59738;48.324;14.230;2022-08-19T03:27:37;15.15;;;8.82;;
71867;SDS011;59738;48.324;14.230;2022-08-19T03:30:05;15.48;;;8.45;;
71867;SDS011;59738;48.324;14.230;2022-08-19T03:32:35;14.23;;;8.43;;
71867;SDS011;59738;48.324;14.230;2022-08-19T03:35:03;13.77;;;8.95;;
71867;SDS011;59738;48.324;14.230;2022-08-19T03:37:31;15.95;;;10.13;;
71867;SDS011;59738;48.324;14.230;2022-08-19T03:39:59;15.77;;;8.75;;
71867;SDS011;59738;48.324;14.230;2022-08-19T03:42:29;14.38;;;8.95;;
71867;SDS011;59738;48.324;14.230;2022-08-19T03:44:57;18.23;;;8.80;;
71867;SDS011;59738;48.324;14.230;2022-08-19T03:47:25;14.57;;;8.65;;
71867;SDS011;59738;48.324;14.230;2022-08-19T03:49:54;15.20;;;9.05;;
71867;SDS011;59738;48.324;14.230;2022-08-19T03:52:22;14.70;;;8.75;;
71867;SDS011;59738;48.324;14.230;2022-08-19T03:54:49;14.48;;;8.65;;
71867;SDS011;59738;48.324;14.230;2022-08-19T03:57:17;15.23;;;8.20;;
71867;SDS011;59738;48.324;14.230;2022-08-19T03:59:45;17.02;;;8.73;;
71867;SDS011;59738;48.324;14.230;2022-08-19T04:02:12;13.70;;;8.68;;
71867;SDS011;59738;48.324;14.230;2022-08-19T04:04:41;16.08;;;8.45;;
71867;SDS011;59738;48.324;14.230;2022-08-19T04:07:12;14.20;;;8.25;;
71867;SDS011;59738;48.324;14.230;2022-08-19T04:09:41;15.73;;;8.33;;
71867;SDS011;59738;48.324;14.230;2022-08-19T04:12:09;14.30;;;8.57;;
71867;SDS011;59738;48.324;14.230;2022-08-19T04:14:37;16.80;;;10.00;;
71867;SDS011;59738;48.324;14.230;2022-08-19T04:17:05;13.68;;;9.43;;
71867;SDS011;59738;48.324;14.230;2022-08-19T04:19:33;14.95;;;9.63;;
71867;SDS011;59738;48.324;14.230;2022-08-19T04:22:02;14.27;;;9.07;;
71867;SDS011;59738;48.324;14.230;2022-08-19T04:24:32;15.80;;;9.15;;
71867;SDS011;59738;48.324;14.230;2022-08-19T04:27:01;15.63;;;9.50;;
71867;SDS011;59738;48.324;14.230;2022-08-19T04:29:31;15.35;;;9.02;;
71867;SDS011;59738;48.324;14.230;2022-08-19T04:31:59;19.88;;;8.98;;
71867;SDS011;59738;48.324;14.230;2022-08-19T04:34:28;19.03;;;9.23;;
71867;SDS011;59738;48.324;14.230;2022-08-19T04:36:57;15.02;;;8.60;;
71867;SDS011;59738;48.324;14.230;2022-08-19T04:39:26;15.23;;;8.32;;
71867;SDS011;59738;48.324;14.230;2022-08-19T04:42:28;14.73;;;8.05;;
71867;SDS011;59738;48.324;14.230;2022-08-19T04:45:08;16.48;;;7.72;;
71867;SDS011;59738;48.324;14.230;2022-08-19T04:47:38;15.23;;;8.00;;
71867;SDS011;59738;48.324;14.230;2022-08-19T04:50:08;14.27;;;8.18;;
71867;SDS011;59738;48.324;14.230;2022-08-19T04:52:37;18.70;;;10.32;;
71867;SDS011;59738;48.324;14.230;2022-08-19T04:55:08;15.50;;;9.07;;
71867;SDS011;59738;48.324;14.230;2022-08-19T04:57:38;20.35;;;10.02;;
71867;SDS011;59738;48.324;14.230;2022-08-19T05:00:07;14.27;;;9.20;;
71867;SDS011;59738;48.324;14.230;2022-08-19T05:02:36;13.68;;;9.57;;
71867;SDS011;59738;48.324;14.230;2022-08-19T05:05:05;15.23;;;9.70;;
71867;SDS011;59738;48.324;14.230;2022-08-19T05:07:33;31.85;;;9.65;;
71867;SDS011;59738;48.324;14.230;2022-08-19T05:10:02;18.15;;;9.45;;
71867;SDS011;59738;48.324;14.230;2022-08-19T05:12:31;25.80;;;11.33;;
71867;SDS011;59738;48.324;14.230;2022-08-19T05:15:01;26.20;;;11.52;;
71867;SDS011;59738;48.324;14.230;2022-08-19T05:17:31;22.92;;;11.55;;
71867;SDS011;59738;48.324;14.230;2022-08-19T05:19:59;22.05;;;11.05;;
71867;SDS011;59738;48.324;14.230;2022-08-19T05:22:45;21.55;;;12.27;;
71867;SDS011;59738;48.324;14.230;2022-08-19T05:25:14;24.27;;;13.33;;
71867;SDS011;59738;48.324;14.230;2022-08-19T05:27:44;24.48;;;14.60;;
71867;SDS011;59738;48.324;14.230;2022-08-19T05:30:13;27.98;;;14.93;;
71867;SDS011;59738;48.324;14.230;2022-08-19T05:32:42;24.83;;;15.60;;
71867;SDS011;59738;48.324;14.230;2022-08-19T05:35:11;30.35;;;15.75;;
71867;SDS011;59738;48.324;14.230;2022-08-19T05:37:39;27.80;;;15.80;;
71867;SDS011;59738;48.324;14.230;2022-08-19T05:40:07;32.17;;;16.70;;
71867;SDS011;59738;48.324;14.230;2022-08-19T05:42:35;28.83;;;17.80;;
71867;SDS011;59738;48.324;14.230;2022-08-19T05:45:03;32.58;;;18.48;;
71867;SDS011;59738;48.324;14.230;2022-08-19T05:47:33;33.72;;;19.35;;
71867;SDS011;59738;48.324;14.230;2022-08-19T05:50:01;29.30;;;18.67;;
71867;SDS011;59738;48.324;14.230;2022-08-19T05:52:29;30.90;;;18.67;;
71867;SDS011;59738;48.324;14.230;2022-08-19T05:54:57;33.22;;;18.75;;
71867;SDS011;59738;48.324;14.230;2022-08-19T05:57:25;32.05;;;19.10;;
71867;SDS011;59738;48.324;14.230;2022-08-19T05:59:54;33.08;;;19.35;;
71867;SDS011;59738;48.324;14.230;2022-08-19T06:02:23;32.33;;;19.40;;
71867;SDS011;59738;48.324;14.230;2022-08-19T06:04:52;35.47;;;20.20;;
71867;SDS011;59738;48.324;14.230;2022-08-19T06:07:20;35.28;;;19.70;;
71867;SDS011;59738;48.324;14.230;2022-08-19T06:09:48;35.78;;;20.00;;
71867;SDS011;59738;48.324;14.230;2022-08-19T06:12:15;33.05;;;18.52;;
71867;SDS011;59738;48.324;14.230;2022-08-19T06:14:43;30.17;;;17.37;;
71867;SDS011;59738;48.324;14.230;2022-08-19T06:17:11;34.08;;;20.45;;
71867;SDS011;59738;48.324;14.230;2022-08-19T06:19:38;33.45;;;19.30;;
71867;SDS011;59738;48.324;14.230;2022-08-19T06:22:08;28.95;;;16.52;;
71867;SDS011;59738;48.324;14.230;2022-08-19T06:24:37;25.15;;;15.82;;
71867;SDS011;59738;48.324;14.230;2022-08-19T06:27:05;27.50;;;16.33;;
71867;SDS011;59738;48.324;14.230;2022-08-19T06:29:33;28.48;;;16.50;;
71867;SDS011;59738;48.324;14.230;2022-08-19T06:32:01;33.08;;;18.73;;
71867;SDS011;59738;48.324;14.230;2022-08-19T06:34:31;27.67;;;17.15;;
71867;SDS011;59738;48.324;14.230;2022-08-19T06:37:01;30.58;;;18.33;;
71867;SDS011;59738;48.324;14.230;2022-08-19T06:39:31;33.67;;;18.60;;
71867;SDS011;59738;48.324;14.230;2022-08-19T06:42:00;28.30;;;17.10;;
71867;SDS011;59738;48.324;14.230;2022-08-19T06:44:33;23.42;;;15.45;;
71867;SDS011;59738;48.324;14.230;2022-08-19T06:47:03;25.48;;;14.50;;
71867;SDS011;59738;48.324;14.230;2022-08-19T06:49:32;24.77;;;16.05;;
71867;SDS011;59738;48.324;14.230;2022-08-19T06:52:01;28.17;;;16.00;;
71867;SDS011;59738;48.324;14.230;2022-08-19T06:54:31;27.02;;;15.90;;
71867;SDS011;59738;48.324;14.230;2022-08-19T06:56:59;26.70;;;17.55;;
71867;SDS011;59738;48.324;14.230;2022-08-19T06:59:28;25.73;;;15.63;;
71867;SDS011;59738;48.324;14.230;2022-08-19T07:01:59;24.35;;;15.85;;
71867;SDS011;59738;48.324;14.230;2022-08-19T07:04:29;26.70;;;16.03;;
71867;SDS011;59738;48.324;14.230;2022-08-19T07:07:00;25.95;;;16.05;;
71867;SDS011;59738;48.324;14.230;2022-08-19T07:09:30;29.55;;;16.33;;
71867;SDS011;59738;48.324;14.230;2022-08-19T07:11:58;25.40;;;16.15;;
71867;SDS011;59738;48.324;14.230;2022-08-19T07:14:26;25.92;;;16.00;;
71867;SDS011;59738;48.324;14.230;2022-08-19T07:16:55;28.40;;;17.40;;
71867;SDS011;59738;48.324;14.230;2022-08-19T07:19:24;30.20;;;16.27;;
71867;SDS011;59738;48.324;14.230;2022-08-19T07:21:54;23.00;;;15.38;;
71867;SDS011;59738;48.324;14.230;2022-08-19T07:24:23;27.10;;;15.05;;
71867;SDS011;59738;48.324;14.230;2022-08-19T07:26:53;24.92;;;16.38;;
71867;SDS011;59738;48.324;14.230;2022-08-19T07:29:22;37.00;;;16.40;;
71867;SDS011;59738;48.324;14.230;2022-08-19T07:31:50;32.90;;;16.15;;
71867;SDS011;59738;48.324;14.230;2022-08-19T07:34:23;30.63;;;15.85;;
71867;SDS011;59738;48.324;14.230;2022-08-19T07:36:51;27.67;;;17.55;;
71867;SDS011;59738;48.324;14.230;2022-08-19T07:39:21;26.30;;;15.93;;
71867;SDS011;59738;48.324;14.230;2022-08-19T07:41:51;26.50;;;15.97;;
71867;SDS011;59738;48.324;14.230;2022-08-19T07:44:22;32.35;;;16.35;;
71867;SDS011;59738;48.324;14.230;2022-08-19T07:46:52;25.80;;;16.38;;
71867;SDS011;59738;48.324;14.230;2022-08-19T07:49:22;30.73;;;17.38;;
71867;SDS011;59738;48.324;14.230;2022-08-19T07:51:52;43.55;;;17.17;;
71867;SDS011;59738;48.324;14.230;2022-08-19T07:54:22;29.13;;;17.43;;
71867;SDS011;59738;48.324;14.230;2022-08-19T07:56:55;27.73;;;17.17;;
71867;SDS011;59738;48.324;14.230;2022-08-19T07:59:24;25.15;;;17.40;;
71867;SDS011;59738;48.324;14.230;2022-08-19T08:01:53;27.70;;;18.00;;
71867;SDS011;59738;48.324;14.230;2022-08-19T08:04:21;27.67;;;17.50;;
71867;SDS011;59738;48.324;14.230;2022-08-19T08:07:06;30.50;;;16.67;;
71867;SDS011;59738;48.324;14.230;2022-08-19T08:09:52;27.27;;;15.90;;
71867;SDS011;59738;48.324;14.230;2022-08-19T08:12:22;25.05;;;16.90;;
71867;SDS011;59738;48.324;14.230;2022-08-19T08:14:54;27.42;;;17.02;;
71867;SDS011;59738;48.324;14.230;2022-08-19T08:17:25;35.17;;;18.52;;
71867;SDS011;59738;48.324;14.230;2022-08-19T08:19:53;25.77;;;17.40;;
71867;SDS011;59738;48.324;14.230;2022-08-19T08:22:21;26.23;;;17.33;;
71867;SDS011;59738;48.324;14.230;2022-08-19T08:25:08;29.15;;;17.73;;
71867;SDS011;59738;48.324;14.230;2022-08-19T08:27:40;26.83;;;17.42;;
71867;SDS011;59738;48.324;14.230;2022-08-19T08:30:10;27.27;;;17.52;;
71867;SDS011;59738;48.324;14.230;2022-08-19T08:32:40;23.80;;;16.43;;
71867;SDS011;59738;48.324;14.230;2022-08-19T08:35:10;26.17;;;17.00;;
71867;SDS011;59738;48.324;14.230;2022-08-19T08:37:40;25.48;;;15.50;;
71867;SDS011;59738;48.324;14.230;2022-08-19T08:40:10;27.88;;;18.08;;
71867;SDS011;59738;48.324;14.230;2022-08-19T08:42:48;30.88;;;18.38;;
71867;SDS011;59738;48.324;14.230;2022-08-19T08:45:24;27.20;;;17.77;;
71867;SDS011;59738;48.324;14.230;2022-08-19T08:47:52;25.45;;;16.33;;
71867;SDS011;59738;48.324;14.230;2022-08-19T08:50:24;27.70;;;16.90;;
71867;SDS011;59738;48.324;14.230;2022-08-19T08:52:56;26.55;;;17.40;;
71867;SDS011;59738;48.324;14.230;2022-08-19T08:55:26;26.98;;;17.15;;
71867;SDS011;59738;48.324;14.230;2022-08-19T08:57:58;24.13;;;16.40;;
71867;SDS011;59738;48.324;14.230;2022-08-19T09:00:29;24.92;;;16.52;;
71867;SDS011;59738;48.324;14.230;2022-08-19T09:02:59;26.00;;;16.55;;
71867;SDS011;59738;48.324;14.230;2022-08-19T09:05:32;41.88;;;18.20;;
71867;SDS011;59738;48.324;14.230;2022-08-19T09:08:10;23.45;;;16.75;;
71867;SDS011;59738;48.324;14.230;2022-08-19T09:10:46;24.27;;;16.83;;
71867;SDS011;59738;48.324;14.230;2022-08-19T09:13:21;25.45;;;17.75;;
71867;SDS011;59738;48.324;14.230;2022-08-19T09:15:58;26.02;;;17.55;;
71867;SDS011;59738;48.324;14.230;2022-08-19T09:18:38;32.33;;;16.42;;
71867;SDS011;59738;48.324;14.230;2022-08-19T09:21:07;26.20;;;17.13;;
71867;SDS011;59738;48.324;14.230;2022-08-19T09:23:36;24.57;;;17.00;;
71867;SDS011;59738;48.324;14.230;2022-08-19T09:26:06;26.05;;;16.45;;
71867;SDS011;59738;48.324;14.230;2022-08-19T09:28:36;27.58;;;17.83;;
71867;SDS011;59738;48.324;14.230;2022-08-19T09:31:04;30.85;;;17.50;;
71867;SDS011;59738;48.324;14.230;2022-08-19T09:33:32;25.00;;;17.38;;
71867;SDS011;59738;48.324;14.230;2022-08-19T09:36:03;26.33;;;16.17;;
71867;SDS011;59738;48.324;14.230;2022-08-19T09:38:33;26.85;;;17.52;;
71867;SDS011;59738;48.324;14.230;2022-08-19T09:41:02;31.35;;;16.80;;
71867;SDS011;59738;48.324;14.230;2022-08-19T09:43:31;24.85;;;15.70;;
71867;SDS011;59738;48.324;14.230;2022-08-19T09:46:03;24.17;;;16.73;;
71867;SDS011;59738;48.324;14.230;2022-08-19T09:48:32;24.07;;;16.30;;
71867;SDS011;59738;48.324;14.230;2022-08-19T09:51:04;25.55;;;17.45;;
71867;SDS011;59738;48.324;14.230;2022-08-19T09:53:33;26.17;;;17.20;;
71867;SDS011;59738;48.324;14.230;2022-08-19T09:56:02;25.92;;;17.02;;
71867;SDS011;59738;48.324;14.230;2022-08-19T09:58:31;29.48;;;17.55;;
71867;SDS011;59738;48.324;14.230;2022-08-19T10:00:59;24.97;;;16.33;;
71867;SDS011;59738;48.324;14.230;2022-08-19T10:03:30;20.88;;;14.02;;
71867;SDS011;59738;48.324;14.230;2022-08-19T10:06:00;19.67;;;14.93;;
71867;SDS011;59738;48.324;14.230;2022-08-19T10:08:31;17.40;;;12.20;;
71867;SDS011;59738;48.324;14.230;2022-08-19T10:11:02;20.48;;;12.30;;
71867;SDS011;59738;48.324;14.230;2022-08-19T10:13:32;19.67;;;12.43;;
71867;SDS011;59738;48.324;14.230;2022-08-19T10:16:02;16.30;;;11.70;;
71867;SDS011;59738;48.324;14.230;2022-08-19T10:18:33;19.77;;;13.45;;
71867;SDS011;59738;48.324;14.230;2022-08-19T10:21:03;18.95;;;12.30;;
71867;SDS011;59738;48.324;14.230;2022-08-19T10:23:35;17.27;;;12.57;;
71867;SDS011;59738;48.324;14.230;2022-08-19T10:26:04;19.57;;;13.10;;
71867;SDS011;59738;48.324;14.230;2022-08-19T10:28:33;17.65;;;12.43;;
71867;SDS011;59738;48.324;14.230;2022-08-19T10:31:03;16.17;;;11.48;;
71867;SDS011;59738;48.324;14.230;2022-08-19T10:33:34;21.35;;;13.32;;
71867;SDS011;59738;48.324;14.230;2022-08-19T10:36:03;15.48;;;10.85;;
71867;SDS011;59738;48.324;14.230;2022-08-19T10:38:33;19.10;;;13.30;;
71867;SDS011;59738;48.324;14.230;2022-08-19T10:41:07;16.17;;;11.90;;
71867;SDS011;59738;48.324;14.230;2022-08-19T10:43:36;18.88;;;12.65;;
71867;SDS011;59738;48.324;14.230;2022-08-19T10:46:06;15.93;;;12.48;;
71867;SDS011;59738;48.324;14.230;2022-08-19T10:48:35;19.10;;;12.90;;
71867;SDS011;59738;48.324;14.230;2022-08-19T10:51:03;19.63;;;14.40;;
71867;SDS011;59738;48.324;14.230;2022-08-19T10:53:50;18.58;;;13.57;;
71867;SDS011;59738;48.324;14.230;2022-08-19T10:56:18;18.52;;;12.55;;
71867;SDS011;59738;48.324;14.230;2022-08-19T10:59:03;17.05;;;12.13;;
71867;SDS011;59738;48.324;14.230;2022-08-19T11:01:32;17.65;;;12.18;;
71867;SDS011;59738;48.324;14.230;2022-08-19T11:04:03;18.00;;;11.83;;
71867;SDS011;59738;48.324;14.230;2022-08-19T11:06:34;15.18;;;10.63;;
71867;SDS011;59738;48.324;14.230;2022-08-19T11:09:04;15.15;;;11.10;;
71867;SDS011;59738;48.324;14.230;2022-08-19T11:11:32;16.35;;;11.90;;
71867;SDS011;59738;48.324;14.230;2022-08-19T11:14:07;13.30;;;9.88;;
71867;SDS011;59738;48.324;14.230;2022-08-19T11:16:35;17.00;;;11.73;;
71867;SDS011;59738;48.324;14.230;2022-08-19T11:19:07;16.95;;;10.85;;
71867;SDS011;59738;48.324;14.230;2022-08-19T11:21:36;15.23;;;10.75;;
71867;SDS011;59738;48.324;14.230;2022-08-19T11:24:07;14.57;;;10.10;;
71867;SDS011;59738;48.324;14.230;2022-08-19T11:26:36;14.18;;;10.70;;
71867;SDS011;59738;48.324;14.230;2022-08-19T11:29:05;14.33;;;9.40;;
71867;SDS011;59738;48.324;14.230;2022-08-19T11:31:37;14.10;;;9.40;;
71867;SDS011;59738;48.324;14.230;2022-08-19T11:34:09;14.43;;;8.93;;
71867;SDS011;59738;48.324;14.230;2022-08-19T11:36:38;12.15;;;8.50;;
71867;SDS011;59738;48.324;14.230;2022-08-19T11:39:09;13.73;;;8.98;;
71867;SDS011;59738;48.324;14.230;2022-08-19T11:41:37;13.13;;;8.83;;
71867;SDS011;59738;48.324;14.230;2022-08-19T11:44:06;12.00;;;8.43;;
71867;SDS011;59738;48.324;14.230;2022-08-19T11:46:34;14.82;;;8.80;;
71867;SDS011;59738;48.324;14.230;2022-08-19T11:49:03;14.50;;;8.85;;
71867;SDS011;59738;48.324;14.230;2022-08-19T11:51:36;12.60;;;9.30;;
71867;SDS011;59738;48.324;14.230;2022-08-19T11:54:04;13.00;;;9.37;;
71867;SDS011;59738;48.324;14.230;2022-08-19T11:56:32;11.45;;;8.75;;
71867;SDS011;59738;48.324;14.230;2022-08-19T11:59:00;15.32;;;8.63;;
71867;SDS011;59738;48.324;14.230;2022-08-19T12:01:28;13.30;;;9.00;;
71867;SDS011;59738;48.324;14.230;2022-08-19T12:03:58;13.45;;;9.15;;
71867;SDS011;59738;48.324;14.230;2022-08-19T12:06:27;14.20;;;9.10;;
71867;SDS011;59738;48.324;14.230;2022-08-19T12:09:00;12.07;;;7.95;;
71867;SDS011;59738;48.324;14.230;2022-08-19T12:11:30;12.60;;;9.00;;
71867;SDS011;59738;48.324;14.230;2022-08-19T12:13:57;10.52;;;8.15;;
71867;SDS011;59738;48.324;14.230;2022-08-19T12:16:26;14.65;;;8.77;;
71867;SDS011;59738;48.324;14.230;2022-08-19T12:18:56;13.40;;;8.33;;
71867;SDS011;59738;48.324;14.230;2022-08-19T12:21:29;12.52;;;8.77;;
71867;SDS011;59738;48.324;14.230;2022-08-19T12:23:58;14.85;;;9.60;;
71867;SDS011;59738;48.324;14.230;2022-08-19T12:26:28;11.90;;;8.73;;
71867;SDS011;59738;48.324;14.230;2022-08-19T12:28:58;14.18;;;9.23;;
71867;SDS011;59738;48.324;14.230;2022-08-19T12:31:26;11.60;;;8.60;;
71867;SDS011;59738;48.324;14.230;2022-08-19T12:33:54;14.05;;;8.55;;
71867;SDS011;59738;48.324;14.230;2022-08-19T12:36:22;12.40;;;9.60;;
71867;SDS011;59738;48.324;14.230;2022-08-19T12:38:51;14.55;;;10.00;;
71867;SDS011;59738;48.324;14.230;2022-08-19T12:41:20;10.88;;;8.90;;
71867;SDS011;59738;48.324;14.230;2022-08-19T12:43:48;11.83;;;8.30;;
71867;SDS011;59738;48.324;14.230;2022-08-19T12:46:17;11.95;;;8.63;;
71867;SDS011;59738;48.324;14.230;2022-08-19T12:48:46;11.27;;;8.15;;
71867;SDS011;59738;48.324;14.230;2022-08-19T12:51:15;11.15;;;7.82;;
71867;SDS011;59738;48.324;14.230;2022-08-19T12:53:44;11.48;;;8.57;;
71867;SDS011;59738;48.324;14.230;2022-08-19T12:56:13;10.90;;;7.67;;
71867;SDS011;59738;48.324;14.230;2022-08-19T12:58:42;16.88;;;7.80;;
71867;SDS011;59738;48.324;14.230;2022-08-19T13:01:11;11.30;;;9.00;;
71867;SDS011;59738;48.324;14.230;2022-08-19T13:03:39;10.13;;;7.20;;
71867;SDS011;59738;48.324;14.230;2022-08-19T13:06:08;11.05;;;7.90;;
71867;SDS011;59738;48.324;14.230;2022-08-19T13:08:36;12.10;;;7.77;;
71867;SDS011;59738;48.324;14.230;2022-08-19T13:11:09;11.27;;;7.45;;
71867;SDS011;59738;48.324;14.230;2022-08-19T13:13:39;10.65;;;7.03;;
71867;SDS011;59738;48.324;14.230;2022-08-19T13:16:09;8.10;;;6.03;;
71867;SDS011;59738;48.324;14.230;2022-08-19T13:18:38;11.93;;;7.10;;
71867;SDS011;59738;48.324;14.230;2022-08-19T13:21:08;9.73;;;6.70;;
71867;SDS011;59738;48.324;14.230;2022-08-19T13:23:37;10.00;;;6.95;;
71867;SDS011;59738;48.324;14.230;2022-08-19T13:26:06;9.50;;;6.90;;
71867;SDS011;59738;48.324;14.230;2022-08-19T13:28:34;10.30;;;7.03;;
71867;SDS011;59738;48.324;14.230;2022-08-19T13:31:22;11.00;;;7.13;;
71867;SDS011;59738;48.324;14.230;2022-08-19T13:34:08;9.20;;;6.50;;
71867;SDS011;59738;48.324;14.230;2022-08-19T13:36:36;9.48;;;6.38;;
71867;SDS011;59738;48.324;14.230;2022-08-19T13:39:05;8.95;;;6.07;;
71867;SDS011;59738;48.324;14.230;2022-08-19T13:41:34;9.48;;;6.25;;
71867;SDS011;59738;48.324;14.230;2022-08-19T13:44:02;9.43;;;6.82;;
71867;SDS011;59738;48.324;14.230;2022-08-19T13:46:33;11.53;;;6.90;;
71867;SDS011;59738;48.324;14.230;2022-08-19T13:49:01;10.18;;;7.47;;
71867;SDS011;59738;48.324;14.230;2022-08-19T13:51:29;10.02;;;7.07;;
71867;SDS011;59738;48.324;14.230;2022-08-19T13:53:57;12.15;;;6.80;;
71867;SDS011;59738;48.324;14.230;2022-08-19T13:56:25;12.00;;;7.00;;
71867;SDS011;59738;48.324;14.230;2022-08-19T13:58:53;11.70;;;6.33;;
71867;SDS011;59738;48.324;14.230;2022-08-19T14:01:21;9.38;;;6.80;;
71867;SDS011;59738;48.324;14.230;2022-08-19T14:03:50;10.35;;;6.53;;
71867;SDS011;59738;48.324;14.230;2022-08-19T14:06:18;11.70;;;6.70;;
71867;SDS011;59738;48.324;14.230;2022-08-19T14:08:47;9.50;;;7.20;;
71867;SDS011;59738;48.324;14.230;2022-08-19T14:11:15;10.80;;;6.37;;
71867;SDS011;59738;48.324;14.230;2022-08-19T14:13:42;12.77;;;7.22;;
71867;SDS011;59738;48.324;14.230;2022-08-19T14:16:11;12.30;;;7.53;;
71867;SDS011;59738;48.324;14.230;2022-08-19T14:18:40;10.90;;;6.88;;
71867;SDS011;59738;48.324;14.230;2022-08-19T14:21:13;11.50;;;6.80;;
71867;SDS011;59738;48.324;14.230;2022-08-19T14:23:43;12.40;;;8.20;;
71867;SDS011;59738;48.324;14.230;2022-08-19T14:26:12;14.00;;;7.30;;
71867;SDS011;59738;48.324;14.230;2022-08-19T14:28:42;12.95;;;6.80;;
71867;SDS011;59738;48.324;14.230;2022-08-19T14:31:10;9.90;;;6.60;;